createdAt,value
2022-09-06T00:00:26.675Z,94080.44
2022-09-06T00:02:54.481Z,94079.41
2022-09-06T00:05:22.353Z,94078.44
2022-09-06T00:07:49.738Z,94078.22
2022-09-06T00:10:17.409Z,94074.53
2022-09-06T00:12:44.692Z,94080.13
2022-09-06T00:15:12.090Z,94076.22
2022-09-06T00:17:39.837Z,94078.94
2022-09-06T00:20:10.872Z,94071.59
2022-09-06T00:22:38.852Z,94074.72
2022-09-06T00:25:07.427Z,94079.09
2022-09-06T00:27:35.705Z,94074.62
2022-09-06T00:30:04.881Z,94076.13
2022-09-06T00:32:33.347Z,94080.00
2022-09-06T00:35:01.050Z,94075.72
2022-09-06T00:37:28.397Z,94078.03
2022-09-06T00:39:56.180Z,94075.25
2022-09-06T00:42:23.671Z,94066.19
2022-09-06T00:44:51.226Z,94072.69
2022-09-06T00:47:19.765Z,94060.97
2022-09-06T00:49:52.318Z,94058.16
2022-09-06T00:52:20.582Z,94062.81
2022-09-06T00:54:50.261Z,94058.28
2022-09-06T00:57:18.378Z,94056.59
2022-09-06T00:59:47.762Z,94060.31
2022-09-06T01:02:15.138Z,94053.03
2022-09-06T01:04:44.740Z,94054.13
2022-09-06T01:07:47.764Z,94059.91
2022-09-06T01:10:45.522Z,94060.75
2022-09-06T01:13:21.294Z,94061.38
2022-09-06T01:16:12.007Z,94060.88
2022-09-06T01:19:11.108Z,94055.91
2022-09-06T01:21:50.299Z,94065.25
2022-09-06T01:24:48.044Z,94063.97
2022-09-06T01:27:37.281Z,94060.00
2022-09-06T01:30:07.945Z,94060.25
2022-09-06T01:32:54.077Z,94064.13
2022-09-06T01:35:58.446Z,94057.47
2022-09-06T01:38:26.193Z,94063.87
2022-09-06T01:40:54.088Z,94058.78
2022-09-06T01:43:31.292Z,94056.81
2022-09-06T01:46:20.799Z,94056.34
2022-09-06T01:48:57.317Z,94052.03
2022-09-06T01:51:35.459Z,94049.44
2022-09-06T01:54:02.799Z,94050.09
2022-09-06T01:56:53.384Z,94045.31
2022-09-06T01:59:34.378Z,94039.53
2022-09-06T02:02:17.350Z,94044.56
2022-09-06T02:04:51.732Z,94042.38
2022-09-06T02:07:28.547Z,94038.97
2022-09-06T02:10:38.571Z,94039.09
2022-09-06T02:13:07.751Z,94040.00
2022-09-06T02:15:40.317Z,94034.97
2022-09-06T02:18:16.394Z,94039.06
2022-09-06T02:20:54.726Z,94033.37
2022-09-06T02:23:25.478Z,94032.47
2022-09-06T02:26:05.229Z,94035.28
2022-09-06T02:28:33.241Z,94033.94
2022-09-06T02:31:10.359Z,94037.81
2022-09-06T02:33:38.161Z,94039.19
2022-09-06T02:36:09.025Z,94041.97
2022-09-06T02:38:39.622Z,94038.53
2022-09-06T02:41:08.622Z,94044.12
2022-09-06T02:43:36.369Z,94048.78
2022-09-06T02:46:04.001Z,94044.56
2022-09-06T02:48:31.761Z,94044.81
2022-09-06T02:51:03.050Z,94045.59
2022-09-06T02:53:30.393Z,94045.12
2022-09-06T02:55:58.295Z,94053.00
2022-09-06T02:58:25.743Z,94048.19
2022-09-06T03:00:53.608Z,94054.34
2022-09-06T03:03:22.300Z,94049.09
2022-09-06T03:05:51.173Z,94050.00
2022-09-06T03:08:20.599Z,94053.91
2022-09-06T03:10:56.316Z,94043.41
2022-09-06T03:13:24.834Z,94040.31
2022-09-06T03:15:54.258Z,94045.31
2022-09-06T03:18:29.411Z,94055.28
2022-09-06T03:20:58.342Z,94053.91
2022-09-06T03:23:28.348Z,94035.66
2022-09-06T03:25:56.094Z,94047.72
2022-09-06T03:28:24.001Z,94045.63
2022-09-06T03:30:52.194Z,94049.97
2022-09-06T03:33:21.772Z,94048.37
2022-09-06T03:35:50.556Z,94046.34
2022-09-06T03:38:18.513Z,94047.47
2022-09-06T03:40:47.528Z,94048.84
2022-09-06T03:43:17.343Z,94051.66
2022-09-06T03:45:53.545Z,94052.59
2022-09-06T03:48:23.543Z,94061.63
2022-09-06T03:50:53.434Z,94053.63
2022-09-06T03:53:22.466Z,94051.38
2022-09-06T03:55:52.827Z,94055.22
2022-09-06T03:58:22.655Z,94063.66
2022-09-06T04:00:59.545Z,94058.69
2022-09-06T04:03:27.369Z,94067.91
2022-09-06T04:05:54.761Z,94063.16
2022-09-06T04:08:22.244Z,94065.78
2022-09-06T04:10:53.034Z,94062.06
2022-09-06T04:13:21.110Z,94060.28
2022-09-06T04:15:48.520Z,94063.72
2022-09-06T04:18:17.086Z,94059.56
2022-09-06T04:20:48.486Z,94059.69
2022-09-06T04:23:16.726Z,94056.94
2022-09-06T04:25:53.704Z,94055.09
2022-09-06T04:28:22.230Z,94059.75
2022-09-06T04:31:07.695Z,94055.84
2022-09-06T04:33:36.595Z,94061.28
2022-09-06T04:36:07.666Z,94058.13
2022-09-06T04:38:43.627Z,94056.00
2022-09-06T04:41:12.865Z,94057.50
2022-09-06T04:43:42.525Z,94065.03
2022-09-06T04:46:25.514Z,94060.38
2022-09-06T04:48:55.302Z,94062.00
2022-09-06T04:51:23.231Z,94058.03
2022-09-06T04:53:51.525Z,94057.44
2022-09-06T04:56:25.264Z,94056.72
2022-09-06T04:58:55.029Z,94057.59
2022-09-06T05:01:23.408Z,94055.00
2022-09-06T05:03:53.979Z,94049.66
2022-09-06T05:06:25.114Z,94052.66
2022-09-06T05:08:52.995Z,94048.13
2022-09-06T05:11:20.647Z,94047.13
2022-09-06T05:13:50.471Z,94053.25
2022-09-06T05:16:18.475Z,94055.47
2022-09-06T05:18:45.995Z,94046.38
2022-09-06T05:21:13.777Z,94048.84
2022-09-06T05:23:41.257Z,94048.28
2022-09-06T05:26:08.921Z,94051.62
2022-09-06T05:28:37.216Z,94042.63
2022-09-06T05:31:09.806Z,94044.00
2022-09-06T05:33:39.606Z,94039.97
2022-09-06T05:36:08.814Z,94041.50
2022-09-06T05:38:36.248Z,94037.12
2022-09-06T05:41:04.110Z,94045.78
2022-09-06T05:43:31.534Z,94044.53
2022-09-06T05:45:59.494Z,94043.13
2022-09-06T05:48:27.477Z,94046.75
2022-09-06T05:51:07.016Z,94053.28
2022-09-06T05:53:36.020Z,94046.28
2022-09-06T05:56:05.306Z,94041.66
2022-09-06T05:58:32.839Z,94044.19
2022-09-06T06:01:15.258Z,94043.59
2022-09-06T06:03:50.023Z,94040.97
2022-09-06T06:06:19.709Z,94031.91
2022-09-06T06:08:48.410Z,94027.25
2022-09-06T06:11:17.062Z,94033.47
2022-09-06T06:13:44.792Z,94034.69
2022-09-06T06:16:15.327Z,94029.41
2022-09-06T06:18:42.886Z,94024.59
2022-09-06T06:21:19.404Z,94018.94
2022-09-06T06:23:49.526Z,94020.88
2022-09-06T06:26:16.975Z,94018.81
2022-09-06T06:28:44.700Z,94019.63
2022-09-06T06:31:13.278Z,94018.09
2022-09-06T06:33:40.860Z,94022.72
2022-09-06T06:36:21.967Z,94014.59
2022-09-06T06:38:52.209Z,94015.69
2022-09-06T06:41:21.454Z,94013.09
2022-09-06T06:43:48.797Z,94019.53
2022-09-06T06:46:18.539Z,94013.31
2022-09-06T06:48:48.635Z,94011.81
2022-09-06T06:51:19.991Z,94011.47
2022-09-06T06:53:49.139Z,94006.03
2022-09-06T06:56:21.514Z,94002.34
2022-09-06T06:58:51.479Z,94002.94
2022-09-06T07:01:21.023Z,94005.88
2022-09-06T07:03:49.721Z,94009.13
2022-09-06T07:06:18.459Z,94009.84
2022-09-06T07:08:46.985Z,94011.22
2022-09-06T07:11:16.811Z,94003.28
2022-09-06T07:13:45.755Z,94003.31
2022-09-06T07:16:15.604Z,94006.50
2022-09-06T07:18:45.401Z,93995.94
2022-09-06T07:26:33.777Z,94011.03
2022-09-06T07:29:03.061Z,94004.91
2022-09-06T07:34:21.645Z,94010.97
2022-09-06T07:36:56.495Z,94008.00
2022-09-06T07:39:24.434Z,94014.28
2022-09-06T07:41:52.567Z,94013.38
2022-09-06T07:44:20.364Z,94006.22
2022-09-06T07:46:48.014Z,94010.91
2022-09-06T07:49:16.065Z,94001.28
2022-09-06T07:51:43.485Z,94005.59
2022-09-06T07:54:30.069Z,94013.31
2022-09-06T07:56:58.667Z,94006.09
2022-09-06T07:59:26.064Z,94004.63
2022-09-06T08:01:53.771Z,94000.44
2022-09-06T08:04:21.483Z,94003.66
2022-09-06T08:09:38.866Z,93995.78
2022-09-06T08:12:09.575Z,93993.44
2022-09-06T08:14:36.977Z,93982.84
2022-09-06T08:17:05.002Z,93974.38
2022-09-06T08:19:32.681Z,93987.75
2022-09-06T08:22:00.155Z,93982.94
2022-09-06T08:24:27.966Z,93981.84
2022-09-06T08:26:55.479Z,93980.16
2022-09-06T08:29:22.924Z,93983.53
2022-09-06T08:31:50.658Z,93976.53
2022-09-06T08:34:18.102Z,93977.03
2022-09-06T08:36:46.077Z,93972.34
2022-09-06T08:39:13.822Z,93963.00
2022-09-06T08:41:58.703Z,93957.53
2022-09-06T08:44:57.352Z,93968.03
2022-09-06T08:47:25.450Z,93961.62
2022-09-06T08:50:12.007Z,93961.12
2022-09-06T08:53:15.660Z,93947.63
2022-09-06T08:55:55.932Z,93942.50
2022-09-06T08:58:35.202Z,93943.47
2022-09-06T09:01:07.790Z,93934.50
2022-09-06T09:03:37.546Z,93931.19
2022-09-06T09:06:09.455Z,93934.69
2022-09-06T09:09:04.872Z,93919.22
2022-09-06T09:11:36.251Z,93917.84
2022-09-06T09:14:27.956Z,93921.22
2022-09-06T09:17:00.278Z,93920.63
2022-09-06T09:19:27.597Z,93913.56
2022-09-06T09:21:55.890Z,93913.91
2022-09-06T09:24:25.171Z,93900.66
2022-09-06T09:27:02.992Z,93896.97
2022-09-06T09:29:35.655Z,93895.31
2022-09-06T09:32:04.039Z,93892.41
2022-09-06T09:34:36.461Z,93899.28
2022-09-06T09:40:26.262Z,93888.03
2022-09-06T09:42:57.079Z,93882.75
2022-09-06T09:45:34.493Z,93883.84
2022-09-06T09:48:24.099Z,93886.34
2022-09-06T09:50:52.010Z,93879.50
2022-09-06T09:53:22.553Z,93879.94
2022-09-06T09:55:56.373Z,93880.94
2022-09-06T09:58:37.278Z,93882.97
2022-09-06T10:01:20.216Z,93877.06
2022-09-06T10:09:35.605Z,93864.44
2022-09-06T10:12:03.625Z,93861.81
2022-09-06T10:14:39.723Z,93869.34
2022-09-06T10:17:07.874Z,93853.75
2022-09-06T10:19:45.891Z,93860.31
2022-09-06T10:22:21.606Z,93850.13
2022-09-06T10:25:08.732Z,93850.44
2022-09-06T10:27:55.682Z,93850.47
2022-09-06T10:30:39.900Z,93850.41
2022-09-06T10:33:26.897Z,93856.97
2022-09-06T10:35:58.090Z,93848.16
2022-09-06T10:38:35.927Z,93850.28
2022-09-06T10:41:25.992Z,93850.28
2022-09-06T10:44:08.914Z,93842.84
2022-09-06T10:46:37.360Z,93847.75
2022-09-06T10:49:09.836Z,93844.44
2022-09-06T10:51:44.266Z,93839.69
2022-09-06T10:54:14.244Z,93839.78
2022-09-06T10:56:54.156Z,93837.28
2022-09-06T11:02:32.976Z,93838.84
2022-09-06T11:10:55.647Z,93843.75
2022-09-06T11:13:28.520Z,93836.72
2022-09-06T11:16:21.816Z,93828.63
2022-09-06T11:19:04.255Z,93826.91
2022-09-06T11:21:49.958Z,93833.66
2022-09-06T11:24:26.215Z,93831.03
2022-09-06T11:27:06.885Z,93824.66
2022-09-06T11:29:39.247Z,93819.87
2022-09-06T11:32:38.045Z,93813.41
2022-09-06T11:35:11.346Z,93814.97
2022-09-06T11:37:44.053Z,93811.37
2022-09-06T11:42:59.569Z,93812.09
2022-09-06T11:45:44.854Z,93814.25
2022-09-06T11:48:24.171Z,93819.66
2022-09-06T11:51:01.881Z,93808.75
2022-09-06T11:53:32.865Z,93810.34
2022-09-06T11:56:00.571Z,93805.50
2022-09-06T11:58:40.339Z,93810.97
2022-09-06T12:01:14.167Z,93811.84
2022-09-06T12:06:41.019Z,93798.81
2022-09-06T12:09:39.454Z,93799.13
2022-09-06T12:12:07.086Z,93790.88
2022-09-06T12:14:43.388Z,93791.22
2022-09-06T12:17:11.649Z,93798.50
2022-09-06T12:19:44.379Z,93782.19
2022-09-06T12:22:31.334Z,93790.59
2022-09-06T12:25:02.072Z,93777.91
2022-09-06T12:27:33.598Z,93781.75
2022-09-06T12:30:07.080Z,93786.69
2022-09-06T12:32:37.351Z,93793.38
2022-09-06T12:38:06.679Z,93788.44
2022-09-06T12:40:41.029Z,93791.63
2022-09-06T12:43:11.986Z,93786.28
2022-09-06T12:45:50.840Z,93778.66
2022-09-06T12:48:35.534Z,93777.16
2022-09-06T12:51:13.761Z,93776.84
2022-09-06T12:53:41.189Z,93775.72
2022-09-06T12:56:12.792Z,93770.38
2022-09-06T12:58:40.914Z,93769.47
2022-09-06T13:01:12.659Z,93775.13
2022-09-06T13:04:02.950Z,93769.31
2022-09-06T13:06:37.528Z,93772.88
2022-09-06T13:09:08.229Z,93767.22
2022-09-06T13:11:41.911Z,93763.59
2022-09-06T13:14:17.857Z,93772.13
2022-09-06T13:16:53.865Z,93765.22
2022-09-06T13:19:51.182Z,93762.22
2022-09-06T13:22:40.491Z,93769.62
2022-09-06T13:25:18.638Z,93765.66
2022-09-06T13:27:51.292Z,93774.16
2022-09-06T13:30:42.495Z,93776.03
2022-09-06T13:33:26.090Z,93774.19
2022-09-06T13:36:24.583Z,93773.56
2022-09-06T13:38:52.591Z,93779.84
2022-09-06T13:41:25.949Z,93779.06
2022-09-06T13:44:06.168Z,93783.75
2022-09-06T13:46:36.361Z,93782.37
2022-09-06T13:49:05.833Z,93776.25
2022-09-06T13:51:34.215Z,93781.25
2022-09-06T13:54:10.785Z,93776.91
2022-09-06T13:56:39.550Z,93771.38
2022-09-06T13:59:10.051Z,93781.41
2022-09-06T14:01:39.959Z,93781.09
2022-09-06T14:04:08.468Z,93771.03
2022-09-06T14:06:37.046Z,93776.22
2022-09-06T14:09:07.768Z,93772.88
2022-09-06T14:11:36.798Z,93760.19
2022-09-06T14:14:05.102Z,93752.91
2022-09-06T14:16:33.986Z,93754.22
2022-09-06T14:19:02.828Z,93750.31
2022-09-06T14:21:30.269Z,93751.44
2022-09-06T14:24:03.329Z,93748.81
2022-09-06T14:26:33.344Z,93751.87
2022-09-06T14:29:00.876Z,93749.47
2022-09-06T14:31:29.531Z,93748.09
2022-09-06T14:33:58.500Z,93751.75
2022-09-06T14:36:29.464Z,93746.88
2022-09-06T14:38:59.428Z,93748.19
2022-09-06T14:41:27.509Z,93752.03
2022-09-06T14:43:57.461Z,93755.28
2022-09-06T14:46:27.094Z,93752.78
2022-09-06T14:49:01.025Z,93755.97
2022-09-06T14:51:30.340Z,93744.56
2022-09-06T14:54:02.304Z,93740.91
2022-09-06T14:56:30.506Z,93748.59
2022-09-06T14:59:00.015Z,93744.94
2022-09-06T15:01:32.931Z,93746.81
2022-09-06T15:04:04.995Z,93746.00
2022-09-06T15:06:34.086Z,93748.00
2022-09-06T15:09:01.567Z,93750.44
2022-09-06T15:11:41.519Z,93736.66
2022-09-06T15:14:14.179Z,93740.25
2022-09-06T15:16:42.624Z,93732.62
2022-09-06T15:19:10.456Z,93739.47
2022-09-06T15:21:37.952Z,93734.88
2022-09-06T15:24:11.559Z,93732.62
2022-09-06T15:26:41.715Z,93744.47
2022-09-06T15:29:13.715Z,93744.53
2022-09-06T15:31:42.765Z,93743.69
2022-09-06T15:34:10.634Z,93748.59
2022-09-06T15:36:39.136Z,93755.72
2022-09-06T15:39:06.869Z,93753.91
2022-09-06T15:41:37.546Z,93757.97
2022-09-06T15:44:13.651Z,93752.75
2022-09-06T15:46:41.425Z,93762.19
2022-09-06T15:49:11.102Z,93755.38
2022-09-06T15:51:40.265Z,93761.53
2022-09-06T15:54:09.455Z,93756.94
2022-09-06T15:56:37.174Z,93760.44
2022-09-06T15:59:05.543Z,93765.81
2022-09-06T16:01:34.332Z,93776.06
2022-09-06T16:04:06.827Z,93776.44
2022-09-06T16:06:37.842Z,93771.34
2022-09-06T16:09:09.166Z,93777.53
2022-09-06T16:11:37.628Z,93765.41
2022-09-06T16:14:07.193Z,93781.94
2022-09-06T16:16:36.053Z,93777.94
2022-09-06T16:19:03.770Z,93786.09
2022-09-06T16:21:33.545Z,93785.47
2022-09-06T16:24:04.758Z,93789.84
2022-09-06T16:26:35.824Z,93777.97
2022-09-06T16:29:05.255Z,93770.62
2022-09-06T16:31:39.961Z,93772.34
2022-09-06T16:34:09.280Z,93765.66
2022-09-06T16:36:37.599Z,93761.41
2022-09-06T16:39:05.783Z,93778.09
2022-09-06T16:41:43.697Z,93775.81
2022-09-06T16:44:16.837Z,93770.00
2022-09-06T16:46:47.178Z,93769.38
2022-09-06T16:49:17.469Z,93769.91
2022-09-06T16:51:46.137Z,93764.28
2022-09-06T16:54:15.686Z,93775.34
2022-09-06T16:56:44.165Z,93779.78
2022-09-06T16:59:12.566Z,93780.84
2022-09-06T17:01:43.685Z,93778.69
2022-09-06T17:04:13.041Z,93779.84
2022-09-06T17:06:47.057Z,93780.84
2022-09-06T17:09:18.838Z,93789.16
2022-09-06T17:11:50.206Z,93787.94
2022-09-06T17:14:18.691Z,93799.97
2022-09-06T17:17:05.189Z,93802.31
2022-09-06T17:19:39.620Z,93798.16
2022-09-06T17:22:11.538Z,93807.25
2022-09-06T17:24:40.834Z,93803.56
2022-09-06T17:27:09.558Z,93808.25
2022-09-06T17:29:37.502Z,93804.19
2022-09-06T17:32:10.291Z,93812.31
2022-09-06T17:34:38.791Z,93808.56
2022-09-06T17:37:06.676Z,93816.81
2022-09-06T17:39:33.993Z,93824.28
2022-09-06T17:42:02.294Z,93827.72
2022-09-06T17:44:30.108Z,93823.12
2022-09-06T17:47:14.067Z,93828.84
2022-09-06T17:49:43.417Z,93828.25
2022-09-06T17:52:11.560Z,93831.00
2022-09-06T17:54:38.935Z,93840.81
2022-09-06T17:57:06.446Z,93845.56
2022-09-06T17:59:35.783Z,93839.03
2022-09-06T18:02:04.353Z,93846.31
2022-09-06T18:04:32.627Z,93849.94
2022-09-06T18:06:59.927Z,93851.72
2022-09-06T18:09:27.351Z,93857.59
2022-09-06T18:11:55.055Z,93853.94
2022-09-06T18:14:23.567Z,93861.53
2022-09-06T18:16:53.121Z,93867.31
2022-09-06T18:19:22.219Z,93865.59
2022-09-06T18:21:50.247Z,93868.50
2022-09-06T18:24:17.955Z,93866.31
2022-09-06T18:26:46.276Z,93868.66
2022-09-06T18:29:17.010Z,93872.69
2022-09-06T18:31:44.798Z,93883.81
2022-09-06T18:34:12.951Z,93880.25
2022-09-06T18:36:40.907Z,93885.22
2022-09-06T18:39:08.343Z,93885.63
2022-09-06T18:41:54.544Z,93881.72
2022-09-06T18:44:21.949Z,93877.56
2022-09-06T18:46:50.164Z,93877.47
2022-09-06T18:49:17.901Z,93886.09
2022-09-06T18:51:45.990Z,93884.75
2022-09-06T18:54:14.530Z,93880.97
2022-09-06T18:56:42.675Z,93879.31
2022-09-06T18:59:11.182Z,93879.59
2022-09-06T19:01:44.045Z,93881.34
2022-09-06T19:04:12.479Z,93884.47
2022-09-06T19:06:41.456Z,93888.19
2022-09-06T19:09:13.629Z,93890.25
2022-09-06T19:11:43.151Z,93882.16
2022-09-06T19:14:10.794Z,93889.88
2022-09-06T19:16:38.303Z,93888.37
2022-09-06T19:19:07.319Z,93893.00
2022-09-06T19:21:39.373Z,93887.97
2022-09-06T19:24:10.684Z,93884.69
2022-09-06T19:26:40.183Z,93883.41
2022-09-06T19:29:09.486Z,93884.59
2022-09-06T19:31:38.180Z,93884.59
2022-09-06T19:34:06.065Z,93887.28
2022-09-06T19:36:34.170Z,93887.56
2022-09-06T19:39:06.553Z,93886.28
2022-09-06T19:41:36.499Z,93880.69
2022-09-06T19:44:06.092Z,93889.44
2022-09-06T19:46:35.024Z,93881.94
2022-09-06T19:49:02.520Z,93873.50
2022-09-06T19:51:30.361Z,93875.69
2022-09-06T19:53:58.265Z,93867.00
2022-09-06T19:56:26.892Z,93865.41
2022-09-06T19:58:55.782Z,93866.47
2022-09-06T20:01:24.067Z,93870.94
2022-09-06T20:03:52.547Z,93867.00
2022-09-06T20:06:19.837Z,93864.87
2022-09-06T20:08:50.156Z,93867.53
2022-09-06T20:11:18.536Z,93870.19
2022-09-06T20:13:45.970Z,93872.06
2022-09-06T20:16:13.767Z,93874.19
2022-09-06T20:18:41.900Z,93874.97
2022-09-06T20:21:09.190Z,93873.09
2022-09-06T20:23:36.945Z,93873.09
2022-09-06T20:26:06.221Z,93871.78
2022-09-06T20:28:33.977Z,93873.09
2022-09-06T20:31:02.539Z,93877.84
2022-09-06T20:33:30.369Z,93872.06
2022-09-06T20:35:58.794Z,93873.63
2022-09-06T20:38:26.196Z,93873.13
2022-09-06T20:40:57.651Z,93873.34
2022-09-06T20:43:25.261Z,93874.69
2022-09-06T20:45:52.960Z,93875.94
2022-09-06T20:48:20.673Z,93878.34
2022-09-06T20:50:56.112Z,93873.28
2022-09-06T20:53:23.771Z,93879.34
2022-09-06T20:55:58.161Z,93877.47
2022-09-06T20:58:25.845Z,93874.25
2022-09-06T21:00:53.356Z,93876.69
2022-09-06T21:03:21.412Z,93874.59
2022-09-06T21:05:48.989Z,93875.66
2022-09-06T21:08:16.870Z,93876.66
2022-09-06T21:10:44.325Z,93877.44
2022-09-06T21:13:12.456Z,93876.97
2022-09-06T21:15:43.101Z,93876.91
2022-09-06T21:18:10.416Z,93874.84
2022-09-06T21:20:38.061Z,93882.59
2022-09-06T21:23:05.713Z,93888.34
2022-09-06T21:25:32.849Z,93876.31
2022-09-06T21:28:00.411Z,93876.72
2022-09-06T21:30:27.670Z,93885.69
2022-09-06T21:32:55.207Z,93884.09
2022-09-06T21:35:22.901Z,93890.50
2022-09-06T21:37:51.198Z,93893.41
2022-09-06T21:40:18.382Z,93888.19
2022-09-06T21:42:46.327Z,93885.31
2022-09-06T21:45:13.439Z,93887.44
2022-09-06T21:47:41.468Z,93889.25
2022-09-06T21:50:09.440Z,93890.81
2022-09-06T21:52:36.684Z,93895.41
2022-09-06T21:55:06.365Z,93899.75
2022-09-06T21:57:33.955Z,93896.63
2022-09-06T22:00:01.176Z,93898.53
2022-09-06T22:02:28.530Z,93904.03
2022-09-06T22:04:56.278Z,93904.66
2022-09-06T22:07:23.434Z,93904.56
2022-09-06T22:09:50.618Z,93904.59
2022-09-06T22:12:18.197Z,93898.19
2022-09-06T22:14:46.867Z,93902.16
2022-09-06T22:17:14.006Z,93908.03
2022-09-06T22:19:41.667Z,93917.13
2022-09-06T22:22:08.830Z,93905.69
2022-09-06T22:24:36.547Z,93910.84
2022-09-06T22:27:04.259Z,93908.97
2022-09-06T22:29:31.366Z,93914.75
2022-09-06T22:31:58.503Z,93914.13
2022-09-06T22:34:26.093Z,93908.12
2022-09-06T22:36:53.318Z,93913.59
2022-09-06T22:39:20.675Z,93913.28
2022-09-06T22:41:48.380Z,93908.44
2022-09-06T22:44:15.906Z,93902.06
2022-09-06T22:46:43.131Z,93902.22
2022-09-06T22:49:10.634Z,93904.75
2022-09-06T22:51:37.846Z,93892.72
2022-09-06T22:54:05.249Z,93891.00
2022-09-06T22:56:32.793Z,93888.87
2022-09-06T22:59:00.672Z,93878.81
2022-09-06T23:01:27.948Z,93879.59
2022-09-06T23:03:55.522Z,93881.09
2022-09-06T23:06:22.636Z,93888.34
2022-09-06T23:08:49.865Z,93884.72
2022-09-06T23:11:18.850Z,93890.41
2022-09-06T23:13:47.301Z,93886.06
2022-09-06T23:16:19.491Z,93892.75
2022-09-06T23:18:47.143Z,93884.38
2022-09-06T23:21:15.497Z,93884.34
2022-09-06T23:23:43.025Z,93890.59
2022-09-06T23:26:11.822Z,93893.66
2022-09-06T23:28:39.423Z,93884.97
2022-09-06T23:31:08.425Z,93889.81
2022-09-06T23:33:37.472Z,93893.00
2022-09-06T23:36:05.273Z,93901.88
2022-09-06T23:38:33.727Z,93894.59
2022-09-06T23:41:01.897Z,93891.56
2022-09-06T23:43:29.256Z,93890.56
2022-09-06T23:45:56.476Z,93888.97
2022-09-06T23:48:24.230Z,93891.84
2022-09-06T23:50:51.379Z,93886.72
2022-09-06T23:53:18.605Z,93885.56
2022-09-06T23:55:46.053Z,93886.31
2022-09-06T23:58:13.427Z,93882.63
